Time;durP1;ratioP1;P1;durP2;ratioP2;P2;SDS_P1;SDS_P2;PMS_P1;PMS_P2;Temp;Humidity;BMP_temperature;BMP_pressure;BME280_temperature;BME280_humidity;BME280_pressure;Samples;Min_cycle;Max_cycle;Signal;HPM_P1;HPM_P2
2022/03/25 00:00:26;;;;;;;2.78;1.67;;;15.70;47.30;;;;;;5122574;28;20023;-66
2022/03/25 00:02:53;;;;;;;2.00;1.80;;;15.80;47.30;;;;;;5122634;28;20073;-68
2022/03/25 00:05:19;;;;;;;1.80;1.70;;;15.70;47.30;;;;;;5122574;28;20039;-66
2022/03/25 00:07:45;;;;;;;2.38;1.73;;;15.70;47.30;;;;;;5122384;28;20019;-66
2022/03/25 00:10:11;;;;;;;2.45;1.67;;;15.70;47.30;;;;;;5122484;28;20030;-66
2022/03/25 00:12:37;;;;;;;2.80;2.28;;;15.70;47.30;;;;;;5122321;28;20328;-67
2022/03/25 00:15:03;;;;;;;2.10;1.60;;;15.70;47.30;;;;;;5122278;28;20027;-66
2022/03/25 00:17:29;;;;;;;1.63;1.50;;;15.70;47.30;;;;;;5122305;28;20069;-67
2022/03/25 00:19:54;;;;;;;2.30;1.70;;;15.70;47.30;;;;;;5122252;28;20038;-67
2022/03/25 00:22:20;;;;;;;3.63;1.80;;;15.70;47.30;;;;;;5122248;28;20221;-67
2022/03/25 00:24:46;;;;;;;2.40;1.52;;;15.70;47.20;;;;;;5122147;28;20458;-67
2022/03/25 00:27:12;;;;;;;2.30;1.77;;;15.70;47.20;;;;;;5122201;28;20049;-66
2022/03/25 00:29:38;;;;;;;2.00;1.70;;;15.70;47.20;;;;;;5122138;28;20083;-68
2022/03/25 00:32:04;;;;;;;2.83;1.67;;;15.70;47.20;;;;;;5121981;28;20285;-67
2022/03/25 00:34:30;;;;;;;2.42;1.77;;;15.70;47.20;;;;;;5122066;27;20263;-67
2022/03/25 00:36:55;;;;;;;3.10;1.80;;;15.70;47.20;;;;;;5121856;28;20103;-67
2022/03/25 00:39:21;;;;;;;1.77;1.67;;;15.70;47.20;;;;;;5120680;28;20216;-67
2022/03/25 00:41:47;;;;;;;1.85;1.50;;;15.70;47.20;;;;;;5121861;28;20019;-68
2022/03/25 00:44:14;;;;;;;1.83;1.35;;;15.70;47.20;;;;;;5122366;28;20038;-66
2022/03/25 00:46:40;;;;;;;3.35;1.60;;;15.70;47.20;;;;;;5121789;28;20046;-67
2022/03/25 00:49:06;;;;;;;2.30;1.52;;;15.70;47.20;;;;;;5121598;28;20055;-67
2022/03/25 00:51:34;;;;;;;2.10;1.75;;;15.70;47.20;;;;;;5121632;28;20027;-66
2022/03/25 00:54:00;;;;;;;1.58;1.48;;;15.70;47.20;;;;;;5121722;28;20020;-68
2022/03/25 00:56:26;;;;;;;2.53;2.08;;;15.70;47.20;;;;;;5121512;28;20043;-68
2022/03/25 00:58:52;;;;;;;1.95;1.75;;;15.60;47.20;;;;;;5121634;28;20235;-67
2022/03/25 01:01:17;;;;;;;3.15;1.63;;;15.70;47.20;;;;;;5121512;28;20030;-67
2022/03/25 01:03:43;;;;;;;2.53;1.75;;;15.60;47.10;;;;;;5121801;28;20028;-67
2022/03/25 01:06:10;;;;;;;2.90;2.05;;;15.60;47.10;;;;;;5120141;28;20038;-67
2022/03/25 01:08:35;;;;;;;2.50;1.75;;;15.60;47.10;;;;;;5121354;28;20077;-67
2022/03/25 01:11:04;;;;;;;2.63;1.85;;;15.70;47.10;;;;;;5121260;28;20031;-67
2022/03/25 01:13:33;;;;;;;1.98;1.65;;;15.60;47.10;;;;;;5121339;28;20068;-68
2022/03/25 01:16:05;;;;;;;1.65;1.48;;;15.60;47.10;;;;;;5121289;28;20031;-67
2022/03/25 01:18:31;;;;;;;2.25;1.77;;;15.60;47.10;;;;;;5121278;28;20039;-67
2022/03/25 01:20:57;;;;;;;2.25;1.60;;;15.60;47.10;;;;;;5121120;28;20066;-67
2022/03/25 01:23:24;;;;;;;2.38;1.73;;;15.60;47.10;;;;;;5119810;28;20035;-66
2022/03/25 01:25:50;;;;;;;2.67;1.88;;;15.60;47.00;;;;;;5121067;28;20060;-67
2022/03/25 01:28:16;;;;;;;2.70;2.17;;;15.60;47.10;;;;;;5120923;28;20040;-67
2022/03/25 01:30:43;;;;;;;1.92;1.63;;;15.60;47.00;;;;;;5120911;28;20034;-66
2022/03/25 01:33:09;;;;;;;2.95;2.20;;;15.60;47.10;;;;;;5120519;28;20023;-65
2022/03/25 01:35:36;;;;;;;2.30;1.85;;;15.60;47.10;;;;;;5120711;28;20016;-66
2022/03/25 01:38:02;;;;;;;2.42;1.77;;;15.60;47.20;;;;;;5120862;28;20080;-66
2022/03/25 01:40:28;;;;;;;2.55;1.65;;;15.60;47.10;;;;;;5120820;28;20085;-66
2022/03/25 01:42:54;;;;;;;1.88;1.65;;;15.60;47.10;;;;;;5120712;28;20262;-67
2022/03/25 01:45:33;;;;;;;2.00;1.75;;;15.60;47.10;;;;;;5120682;28;20073;-67
2022/03/25 01:47:59;;;;;;;;;;;15.60;47.10;;;;;;5120992;28;20055;-67
2022/03/25 01:50:25;;;;;;;2.00;1.50;;;15.60;47.10;;;;;;5120547;28;19908;-66
2022/03/25 01:52:51;;;;;;;3.20;2.28;;;15.60;47.00;;;;;;5120617;28;20289;-68
2022/03/25 01:55:26;;;;;;;1.95;1.75;;;15.60;47.60;;;;;;5120520;28;20042;-68
2022/03/25 01:57:57;;;;;;;3.28;1.60;;;15.60;47.00;;;;;;5120583;28;20020;-66
2022/03/25 02:00:25;;;;;;;3.00;2.13;;;15.60;47.00;;;;;;5120511;28;20054;-65
2022/03/25 02:02:51;;;;;;;2.55;1.77;;;15.60;47.00;;;;;;5120542;28;20090;-66
2022/03/25 02:05:18;;;;;;;2.20;2.00;;;15.60;47.00;;;;;;5120381;28;20362;-67
2022/03/25 02:07:45;;;;;;;2.08;1.80;;;15.50;47.00;;;;;;5120294;28;20336;-66
2022/03/25 02:10:11;;;;;;;2.50;1.70;;;15.60;47.00;;;;;;5120401;28;20400;-67
2022/03/25 02:12:37;;;;;;;1.70;1.60;;;15.50;47.00;;;;;;5120203;28;20063;-66
2022/03/25 02:15:05;;;;;;;2.03;1.50;;;15.50;47.00;;;;;;5119042;28;20020;-65
2022/03/25 02:17:31;;;;;;;2.17;1.80;;;15.50;47.00;;;;;;5118934;28;20029;-66
2022/03/25 02:19:56;;;;;;;2.80;2.17;;;15.50;47.10;;;;;;5120160;28;20023;-67
2022/03/25 02:22:22;;;;;;;2.17;1.55;;;15.50;47.00;;;;;;5120217;28;20020;-67
2022/03/25 02:24:49;;;;;;;2.08;1.65;;;15.50;47.10;;;;;;5120115;28;20038;-66
2022/03/25 02:27:17;;;;;;;1.60;1.45;;;15.50;47.10;;;;;;5118734;28;20026;-66
2022/03/25 02:29:44;;;;;;;2.60;1.80;;;15.50;47.10;;;;;;5118938;28;20596;-66
2022/03/25 02:32:10;;;;;;;1.77;1.63;;;15.50;47.10;;;;;;5120091;28;20094;-68
2022/03/25 02:34:37;;;;;;;2.10;1.80;;;15.50;47.20;;;;;;5120024;28;20405;-67
2022/03/25 02:37:04;;;;;;;2.30;1.88;;;15.50;47.20;;;;;;5118739;28;20018;-67
2022/03/25 02:39:30;;;;;;;1.92;1.60;;;15.40;47.10;;;;;;5120127;28;20050;-67
2022/03/25 02:41:56;;;;;;;2.42;2.03;;;15.40;47.10;;;;;;5119955;28;20072;-66
2022/03/25 02:44:22;;;;;;;1.88;1.60;;;15.40;47.10;;;;;;5120044;28;20324;-66
2022/03/25 02:46:48;;;;;;;2.10;1.90;;;15.40;47.10;;;;;;5122659;28;20058;-65
2022/03/25 02:49:15;;;;;;;1.73;1.63;;;15.50;47.20;;;;;;5123934;28;20063;-66
2022/03/25 02:51:41;;;;;;;3.80;2.00;;;15.40;47.10;;;;;;5124043;28;20217;-68
2022/03/25 02:54:06;;;;;;;2.80;2.20;;;15.40;47.10;;;;;;5124052;28;20020;-67
2022/03/25 02:56:32;;;;;;;2.35;1.80;;;15.40;47.10;;;;;;5123981;28;20246;-66
2022/03/25 02:58:59;;;;;;;2.33;1.70;;;15.40;47.20;;;;;;5123917;28;20024;-67
2022/03/25 03:01:25;;;;;;;3.40;2.03;;;15.40;47.20;;;;;;5123876;28;20015;-67
2022/03/25 03:03:50;;;;;;;2.42;1.67;;;15.40;47.20;;;;;;5123902;28;20035;-67
2022/03/25 03:06:16;;;;;;;2.13;1.67;;;15.40;47.20;;;;;;5123792;28;20035;-67
2022/03/25 03:08:42;;;;;;;1.88;1.52;;;15.40;47.20;;;;;;5123789;28;20086;-67
2022/03/25 03:11:08;;;;;;;2.13;1.85;;;15.40;47.10;;;;;;5123640;28;20046;-66
2022/03/25 03:13:34;;;;;;;3.65;1.50;;;15.40;47.20;;;;;;5121943;28;20027;-66
2022/03/25 03:16:00;;;;;;;2.00;1.80;;;15.40;47.10;;;;;;5123661;28;20057;-67
2022/03/25 03:18:26;;;;;;;2.33;1.67;;;15.40;47.10;;;;;;5123537;28;20450;-68
2022/03/25 03:20:53;;;;;;;2.67;1.92;;;15.40;47.10;;;;;;5123504;28;20023;-69
2022/03/25 03:23:19;;;;;;;2.08;1.65;;;15.40;47.10;;;;;;5122150;28;20051;-67
2022/03/25 03:25:46;;;;;;;2.65;1.90;;;15.30;47.20;;;;;;5123401;27;20023;-67
2022/03/25 03:28:11;;;;;;;2.88;2.38;;;15.40;47.20;;;;;;5123351;28;20030;-67
2022/03/25 03:30:37;;;;;;;1.60;1.50;;;15.30;47.20;;;;;;5123254;28;20019;-67
2022/03/25 03:33:04;;;;;;;2.63;1.77;;;15.30;47.10;;;;;;5123251;27;20079;-66
2022/03/25 03:35:34;;;;;;;3.03;1.90;;;15.40;47.20;;;;;;5123214;28;20208;-67
2022/03/25 03:38:01;;;;;;;2.50;1.85;;;15.30;47.20;;;;;;5123250;28;20322;-67
2022/03/25 03:40:27;;;;;;;2.17;1.45;;;15.30;47.10;;;;;;5122999;28;20091;-68
2022/03/25 03:42:52;;;;;;;2.15;1.60;;;15.40;47.10;;;;;;5123115;28;20065;-68
2022/03/25 03:45:18;;;;;;;2.10;1.73;;;15.30;47.20;;;;;;5122994;28;20311;-66
2022/03/25 03:47:45;;;;;;;1.63;1.50;;;15.30;47.20;;;;;;5121562;28;20119;-66
2022/03/25 03:50:13;;;;;;;2.22;1.98;;;15.30;47.20;;;;;;5122941;28;20019;-68
2022/03/25 03:52:39;;;;;;;;;;;15.30;47.20;;;;;;5123285;28;20027;-67
2022/03/25 03:55:07;;;;;;;1.98;1.77;;;15.20;47.10;;;;;;5122794;28;19931;-67
2022/03/25 03:57:34;;;;;;;2.38;1.80;;;15.30;47.20;;;;;;5122238;28;20186;-67
2022/03/25 04:00:00;;;;;;;1.85;1.50;;;15.30;47.20;;;;;;5122722;28;20019;-67
2022/03/25 04:02:25;;;;;;;2.10;1.75;;;15.30;47.20;;;;;;5122488;28;20227;-67
2022/03/25 04:04:51;;;;;;;2.05;1.55;;;15.30;47.30;;;;;;5121713;28;20024;-67
2022/03/25 04:07:17;;;;;;;2.40;2.05;;;15.30;47.30;;;;;;5122518;28;20369;-66
2022/03/25 04:09:43;;;;;;;2.20;1.60;;;15.30;47.20;;;;;;5122477;27;20073;-66
2022/03/25 04:12:09;;;;;;;3.17;2.05;;;15.20;47.20;;;;;;5122384;28;20031;-67
2022/03/25 04:14:35;;;;;;;1.85;1.40;;;15.20;47.20;;;;;;5122287;28;20358;-67
2022/03/25 04:17:02;;;;;;;2.08;1.77;;;15.20;47.10;;;;;;5122347;28;20028;-66
2022/03/25 04:19:27;;;;;;;2.30;2.03;;;15.20;47.20;;;;;;5122292;28;20023;-67
2022/03/25 04:21:54;;;;;;;1.60;1.50;;;15.20;47.20;;;;;;5122264;28;20020;-66
2022/03/25 04:24:19;;;;;;;2.03;1.75;;;15.20;47.20;;;;;;5122248;28;20027;-67
2022/03/25 04:26:45;;;;;;;2.35;1.73;;;15.20;47.20;;;;;;5122028;28;20311;-66
2022/03/25 04:29:11;;;;;;;2.80;1.88;;;15.20;47.30;;;;;;5122151;28;20224;-66
2022/03/25 04:31:36;;;;;;;2.55;1.88;;;15.20;47.20;;;;;;5121923;28;20027;-66
2022/03/25 04:34:03;;;;;;;2.35;1.90;;;15.20;47.20;;;;;;5122038;28;20015;-67
2022/03/25 04:36:29;;;;;;;2.95;1.80;;;15.20;47.30;;;;;;5122026;28;20027;-67
2022/03/25 04:38:56;;;;;;;2.70;1.77;;;15.20;47.30;;;;;;5121919;28;20052;-67
2022/03/25 04:41:23;;;;;;;3.75;2.05;;;15.20;48.00;;;;;;5121892;28;20023;-66
2022/03/25 04:43:49;;;;;;;2.05;1.70;;;15.10;47.30;;;;;;5121860;28;20502;-67
2022/03/25 04:46:14;;;;;;;2.33;1.83;;;15.20;47.30;;;;;;5121772;28;20088;-66
2022/03/25 04:48:40;;;;;;;2.60;1.95;;;15.10;47.30;;;;;;5121557;28;20055;-66
2022/03/25 04:51:06;;;;;;;4.38;2.13;;;15.10;47.30;;;;;;5121575;28;20027;-66
2022/03/25 04:53:34;;;;;;;2.58;1.77;;;15.10;47.30;;;;;;5121590;28;20015;-67
2022/03/25 04:56:03;;;;;;;3.78;1.80;;;15.10;47.30;;;;;;5120413;28;20011;-67
2022/03/25 04:58:29;;;;;;;2.42;1.75;;;15.10;47.30;;;;;;5121503;28;20032;-67
2022/03/25 05:00:55;;;;;;;1.90;1.67;;;15.10;47.30;;;;;;5121427;28;20373;-66
2022/03/25 05:03:21;;;;;;;2.65;1.67;;;15.10;47.30;;;;;;5121474;28;20023;-66
2022/03/25 05:05:47;;;;;;;2.88;2.08;;;15.10;47.40;;;;;;5121316;28;20022;-68
2022/03/25 05:08:14;;;;;;;2.53;1.60;;;15.10;47.30;;;;;;5120530;28;20262;-66
2022/03/25 05:10:40;;;;;;;3.17;1.55;;;15.10;47.30;;;;;;5121329;28;20019;-68
2022/03/25 05:13:06;;;;;;;2.13;1.67;;;15.10;47.30;;;;;;5121175;28;20024;-67
2022/03/25 05:15:31;;;;;;;2.17;1.80;;;15.10;47.30;;;;;;5121291;28;20034;-66
2022/03/25 05:17:57;;;;;;;2.85;2.00;;;15.10;47.20;;;;;;5119818;28;20038;-67
2022/03/25 05:20:24;;;;;;;2.28;1.60;;;15.10;47.20;;;;;;5121159;28;20023;-67
2022/03/25 05:22:50;;;;;;;2.45;2.05;;;15.10;47.30;;;;;;5121012;28;20015;-67
2022/03/25 05:25:17;;;;;;;3.13;1.85;;;15.10;47.20;;;;;;5120967;28;20374;-68
2022/03/25 05:27:54;;;;;;;3.20;1.80;;;15.10;47.20;;;;;;5121200;28;20073;-66
2022/03/25 05:30:22;;;;;;;2.25;1.63;;;15.10;47.20;;;;;;5121023;28;20327;-67
2022/03/25 05:32:47;;;;;;;1.70;1.60;;;15.10;47.20;;;;;;5120835;28;20068;-67
2022/03/25 05:35:13;;;;;;;2.17;1.70;;;15.10;47.20;;;;;;5120805;28;20055;-66
2022/03/25 05:37:39;;;;;;;3.25;1.58;;;15.10;47.10;;;;;;5120827;28;20020;-67
2022/03/25 05:40:07;;;;;;;2.33;1.80;;;15.10;47.10;;;;;;5120685;28;20027;-66
2022/03/25 05:42:34;;;;;;;1.95;1.67;;;15.00;47.10;;;;;;5120640;28;20051;-66
2022/03/25 05:45:00;;;;;;;1.92;1.73;;;15.10;47.20;;;;;;5120705;28;20023;-68
2022/03/25 05:47:25;;;;;;;3.15;1.95;;;15.10;47.20;;;;;;5120462;28;20120;-67
2022/03/25 05:49:51;;;;;;;1.88;1.63;;;15.10;47.20;;;;;;5120614;28;20032;-67
2022/03/25 05:52:17;;;;;;;1.80;1.60;;;15.00;47.10;;;;;;5120371;28;20031;-66
2022/03/25 05:54:43;;;;;;;1.75;1.42;;;15.10;47.30;;;;;;5119252;28;20080;-66
2022/03/25 05:57:09;;;;;;;2.38;1.75;;;15.10;47.20;;;;;;5120465;28;20319;-66
2022/03/25 05:59:34;;;;;;;1.80;1.65;;;15.10;47.10;;;;;;5120326;28;20212;-66
2022/03/25 06:02:00;;;;;;;2.45;1.50;;;15.10;47.20;;;;;;5120417;28;20027;-66
2022/03/25 06:04:26;;;;;;;2.35;1.83;;;15.10;47.20;;;;;;5118960;28;20036;-67
2022/03/25 06:06:52;;;;;;;2.13;1.73;;;15.00;47.20;;;;;;5120315;28;20042;-67
2022/03/25 06:09:18;;;;;;;1.88;1.60;;;15.10;47.20;;;;;;5120257;28;20518;-67
2022/03/25 06:11:43;;;;;;;1.90;1.45;;;15.10;47.20;;;;;;5120090;28;20091;-66
2022/03/25 06:14:09;;;;;;;1.98;1.50;;;15.10;47.10;;;;;;5120227;28;20047;-67
2022/03/25 06:16:35;;;;;;;2.60;1.80;;;15.10;47.10;;;;;;5120082;28;20041;-66
2022/03/25 06:19:00;;;;;;;2.03;1.35;;;15.10;47.10;;;;;;5118853;28;20042;-67
2022/03/25 06:21:26;;;;;;;1.70;1.60;;;15.10;47.10;;;;;;5119950;28;20222;-67
2022/03/25 06:23:52;;;;;;;2.28;2.08;;;15.10;47.10;;;;;;5120055;28;20034;-67
2022/03/25 06:26:18;;;;;;;2.13;1.73;;;15.10;47.10;;;;;;5120086;28;20031;-66
2022/03/25 06:28:44;;;;;;;1.88;1.50;;;15.10;47.00;;;;;;5120058;28;20212;-67
2022/03/25 06:31:09;;;;;;;2.00;1.60;;;15.10;47.00;;;;;;5120078;28;20023;-66
2022/03/25 06:33:37;;;;;;;2.60;2.03;;;15.10;47.00;;;;;;5119907;28;20023;-67
2022/03/25 06:36:04;;;;;;;1.70;1.60;;;15.10;47.00;;;;;;5120011;28;20039;-67
2022/03/25 06:38:30;;;;;;;2.67;1.77;;;15.20;47.00;;;;;;5120003;28;20020;-67
2022/03/25 06:40:56;;;;;;;2.38;1.58;;;15.20;46.90;;;;;;5119864;28;20032;-67
2022/03/25 06:43:21;;;;;;;2.05;1.73;;;15.20;46.80;;;;;;5118622;28;20543;-66
2022/03/25 06:45:47;;;;;;;1.73;1.52;;;15.10;46.80;;;;;;5119880;28;20030;-67
2022/03/25 06:48:13;;;;;;;2.28;2.03;;;15.20;46.80;;;;;;5118449;28;20294;-67
2022/03/25 06:50:39;;;;;;;2.10;1.80;;;15.20;46.80;;;;;;5119695;28;20103;-67
2022/03/25 06:53:06;;;;;;;2.50;1.50;;;15.20;46.70;;;;;;5119781;28;20367;-66
2022/03/25 06:55:32;;;;;;;1.88;1.70;;;15.20;46.70;;;;;;5119880;28;20027;-65
2022/03/25 06:57:58;;;;;;;1.65;1.55;;;15.20;46.60;;;;;;5119762;28;20015;-67
2022/03/25 07:00:24;;;;;;;2.35;1.70;;;15.20;46.60;;;;;;5119703;28;20082;-66
2022/03/25 07:02:51;;;;;;;2.08;1.67;;;15.20;46.60;;;;;;5119813;28;20015;-66
2022/03/25 07:05:18;;;;;;;2.15;1.80;;;15.20;46.70;;;;;;5119713;28;20307;-68
2022/03/25 07:07:44;;;;;;;1.70;1.60;;;15.20;46.70;;;;;;5119730;28;20032;-66
2022/03/25 07:10:12;;;;;;;2.05;1.73;;;15.20;46.60;;;;;;5119741;28;20043;-68
2022/03/25 07:12:39;;;;;;;1.70;1.50;;;15.20;46.70;;;;;;5119511;28;20019;-67
2022/03/25 07:15:07;;;;;;;2.00;1.70;;;15.20;46.70;;;;;;5119561;28;20083;-67
2022/03/25 07:17:35;;;;;;;2.75;1.70;;;15.20;46.70;;;;;;5119568;28;20181;-67
2022/03/25 07:20:01;;;;;;;2.43;1.90;;;15.20;46.70;;;;;;5119654;28;20092;-66
2022/03/25 07:22:27;;;;;;;3.35;2.10;;;15.20;46.70;;;;;;5119487;28;20047;-66
2022/03/25 07:24:52;;;;;;;2.40;1.70;;;15.20;46.70;;;;;;5119545;28;20338;-67
2022/03/25 07:27:18;;;;;;;1.95;1.40;;;15.20;46.70;;;;;;5119490;28;20033;-66
2022/03/25 07:29:44;;;;;;;1.90;1.70;;;15.20;46.60;;;;;;5118035;28;20031;-66
2022/03/25 07:32:10;;;;;;;2.10;1.88;;;15.20;46.70;;;;;;5120812;28;20077;-67
2022/03/25 07:34:37;;;;;;;2.15;1.75;;;15.20;46.70;;;;;;5123169;28;20027;-67
2022/03/25 07:37:04;;;;;;;2.08;1.70;;;15.20;46.80;;;;;;5123152;28;20020;-66
2022/03/25 07:39:31;;;;;;;2.78;1.70;;;15.20;46.70;;;;;;5121868;28;20023;-66
2022/03/25 07:41:57;;;;;;;1.83;1.55;;;15.20;46.70;;;;;;5123006;28;20024;-66
2022/03/25 07:44:23;;;;;;;2.35;1.70;;;15.20;46.70;;;;;;5123032;28;20056;-66
2022/03/25 07:46:48;;;;;;;2.45;1.83;;;15.20;46.70;;;;;;5121616;28;20027;-66
2022/03/25 07:49:15;;;;;;;2.13;1.85;;;15.20;46.70;;;;;;5122664;28;20078;-66
2022/03/25 07:51:41;;;;;;;2.00;1.80;;;15.20;46.70;;;;;;5122807;28;20510;-67
2022/03/25 07:54:07;;;;;;;2.55;1.63;;;15.20;46.70;;;;;;5122808;28;20028;-67
2022/03/25 07:56:32;;;;;;;1.85;1.60;;;15.20;46.70;;;;;;5122767;28;20204;-67
2022/03/25 07:58:59;;;;;;;2.08;1.50;;;15.20;46.80;;;;;;5121400;28;20351;-66
2022/03/25 08:01:26;;;;;;;2.22;1.65;;;15.20;46.80;;;;;;5122633;28;20308;-66
2022/03/25 08:03:52;;;;;;;1.60;1.48;;;15.20;46.80;;;;;;5122718;28;20028;-66
2022/03/25 08:06:18;;;;;;;2.67;1.98;;;15.20;46.70;;;;;;5122583;28;20548;-67
2022/03/25 08:08:47;;;;;;;2.67;1.83;;;15.20;46.70;;;;;;5122601;28;20028;-66
2022/03/25 08:11:13;;;;;;;2.22;1.60;;;15.20;46.80;;;;;;5121068;28;20091;-66
2022/03/25 08:13:39;;;;;;;2.03;1.45;;;15.20;46.90;;;;;;5121160;28;20019;-66
2022/03/25 08:16:05;;;;;;;2.22;1.60;;;15.20;46.90;;;;;;5122387;28;20022;-66
2022/03/25 08:18:30;;;;;;;2.28;1.75;;;15.20;46.80;;;;;;5122414;28;20072;-67
2022/03/25 08:20:57;;;;;;;2.13;1.85;;;15.20;46.80;;;;;;5122255;28;20059;-67
2022/03/25 08:28:55;;;;;;;1.98;1.73;;;15.20;46.90;;;;;;5122182;28;20251;-65
2022/03/25 08:31:24;;;;;;;3.53;2.08;;;15.20;46.90;;;;;;5122005;28;20254;-66
2022/03/25 08:33:50;;;;;;;2.70;2.28;;;15.30;46.90;;;;;;5122156;28;20245;-66
2022/03/25 08:36:17;;;;;;;4.70;1.92;;;15.20;46.90;;;;;;5121996;28;20338;-67
2022/03/25 08:38:44;;;;;;;2.40;1.90;;;15.20;46.90;;;;;;5121999;28;20057;-66
2022/03/25 08:41:09;;;;;;;1.73;1.50;;;15.30;46.90;;;;;;5121993;28;20265;-67
2022/03/25 08:43:35;;;;;;;2.35;1.45;;;15.30;46.90;;;;;;5120606;28;20023;-66
2022/03/25 08:46:03;;;;;;;1.98;1.60;;;15.30;46.90;;;;;;5121838;28;20039;-67
2022/03/25 08:48:29;;;;;;;3.10;2.13;;;15.30;46.90;;;;;;5120381;28;20062;-67
2022/03/25 08:50:55;;;;;;;2.45;1.92;;;15.30;46.90;;;;;;5120271;28;20035;-65
2022/03/25 08:53:21;;;;;;;1.70;1.50;;;15.30;47.00;;;;;;5121781;28;20079;-66
2022/03/25 08:55:46;;;;;;;1.60;1.50;;;15.30;47.00;;;;;;5121571;28;20334;-66
2022/03/25 08:58:12;;;;;;;1.80;1.42;;;15.30;47.00;;;;;;5121641;28;20084;-67
2022/03/25 09:00:38;;;;;;;2.55;2.00;;;15.30;46.90;;;;;;5121506;28;20031;-65
2022/03/25 09:03:05;;;;;;;2.00;1.58;;;15.30;46.90;;;;;;5120170;28;20095;-65
2022/03/25 09:05:31;;;;;;;2.70;1.90;;;15.30;47.00;;;;;;5120210;28;20027;-67
2022/03/25 09:07:57;;;;;;;1.98;1.80;;;15.30;47.00;;;;;;5121320;28;20023;-67
2022/03/25 09:10:23;;;;;;;2.25;1.80;;;15.30;47.00;;;;;;5121624;28;20015;-67
2022/03/25 09:12:48;;;;;;;2.25;1.65;;;15.30;47.00;;;;;;5121217;28;20053;-66
2022/03/25 09:15:15;;;;;;;2.58;1.60;;;15.30;47.00;;;;;;5121238;28;20024;-67
2022/03/25 09:17:45;;;;;;;2.05;1.88;;;15.30;47.00;;;;;;5121162;28;20086;-67
2022/03/25 09:20:14;;;;;;;2.42;1.88;;;15.30;47.00;;;;;;5121243;28;20366;-66
2022/03/25 09:22:41;;;;;;;2.55;1.73;;;15.30;47.00;;;;;;5121186;28;20073;-68
2022/03/25 09:25:08;;;;;;;1.95;1.75;;;15.30;47.10;;;;;;5120991;28;20020;-67
2022/03/25 09:27:35;;;;;;;2.50;1.70;;;15.30;47.10;;;;;;5119999;28;20370;-66
2022/03/25 09:30:02;;;;;;;2.03;1.60;;;15.30;47.10;;;;;;5120929;28;20032;-66
2022/03/25 09:32:28;;;;;;;2.45;1.60;;;15.40;47.10;;;;;;5120763;28;20065;-65
2022/03/25 09:35:09;;;;;;;2.45;1.75;;;15.40;47.10;;;;;;5119550;28;20027;-67
2022/03/25 09:37:42;;;;;;;2.30;1.60;;;15.40;47.00;;;;;;5120781;28;20391;-66
2022/03/25 09:40:18;;;;;;;2.50;1.67;;;15.40;47.00;;;;;;5119526;28;20333;-67
2022/03/25 09:42:45;;;;;;;2.75;2.00;;;15.40;47.20;;;;;;5120794;28;20308;-66
2022/03/25 09:45:15;;;;;;;2.05;1.58;;;15.40;47.20;;;;;;5120656;28;20027;-67
2022/03/25 09:47:42;;;;;;;2.20;1.67;;;15.40;47.10;;;;;;5120605;27;20040;-68
2022/03/25 09:50:13;;;;;;;1.88;1.70;;;15.40;47.20;;;;;;5120580;28;20050;-65
2022/03/25 09:52:41;;;;;;;1.83;1.40;;;15.40;47.20;;;;;;5120521;28;20023;-66
2022/03/25 09:55:07;;;;;;;;;;;15.40;47.20;;;;;;5120505;28;20050;-67
2022/03/25 09:57:33;;;;;;;1.77;1.40;;;15.40;47.20;;;;;;5120501;28;19914;-66
2022/03/25 09:59:59;;;;;;;1.95;1.30;;;15.40;47.20;;;;;;5120427;28;20023;-66
2022/03/25 10:02:26;;;;;;;1.95;1.45;;;15.40;47.20;;;;;;5120327;28;20204;-66
2022/03/25 10:04:52;;;;;;;1.83;1.65;;;15.40;47.20;;;;;;5120512;28;20331;-66
2022/03/25 10:07:30;;;;;;;3.00;1.83;;;15.40;47.20;;;;;;5120300;28;20031;-66
2022/03/25 10:10:18;;;;;;;1.65;1.40;;;15.40;47.10;;;;;;5118973;28;20033;-66
2022/03/25 10:12:48;;;;;;;2.10;1.70;;;15.50;47.20;;;;;;5120242;28;20036;-66
2022/03/25 10:15:25;;;;;;;1.65;1.55;;;15.50;47.30;;;;;;5120276;28;20068;-67
2022/03/25 10:18:01;;;;;;;2.55;1.83;;;15.50;47.30;;;;;;5120237;28;20039;-65
2022/03/25 10:20:34;;;;;;;3.88;1.90;;;15.40;47.20;;;;;;5120179;28;20094;-67
2022/03/25 10:23:19;;;;;;;2.08;1.65;;;15.50;47.30;;;;;;5120143;28;20050;-67
2022/03/25 10:25:51;;;;;;;2.50;1.70;;;15.50;47.30;;;;;;5120053;28;20082;-67
2022/03/25 10:28:23;;;;;;;2.28;1.67;;;15.40;47.40;;;;;;5120101;28;20027;-66
2022/03/25 10:30:51;;;;;;;2.53;1.88;;;15.50;47.30;;;;;;5119974;28;20019;-66
2022/03/25 10:33:42;;;;;;;2.30;1.50;;;15.50;47.40;;;;;;5119978;28;20030;-67
2022/03/25 10:36:10;;;;;;;1.58;1.42;;;15.50;47.30;;;;;;5120486;28;20417;-67
2022/03/25 10:39:13;;;;;;;1.98;1.35;;;15.50;47.30;;;;;;5119933;28;20038;-66
2022/03/25 10:41:50;;;;;;;1.52;1.20;;;15.50;47.30;;;;;;5119288;28;20042;-67
2022/03/25 10:44:16;;;;;;;2.78;2.05;;;15.50;47.30;;;;;;5119930;28;20041;-68
2022/03/25 10:46:46;;;;;;;2.08;1.88;;;15.50;47.40;;;;;;5119922;28;20114;-68
2022/03/25 10:49:15;;;;;;;1.98;1.60;;;15.50;47.40;;;;;;5119788;28;20065;-66
2022/03/25 10:51:42;;;;;;;;;;;15.50;47.30;;;;;;5120269;28;20381;-67
2022/03/25 10:54:12;;;;;;;2.22;1.67;;;15.50;47.30;;;;;;5119816;28;19900;-67
2022/03/25 10:56:54;;;;;;;2.30;1.75;;;15.50;48.00;;;;;;5119817;28;20335;-65
2022/03/25 10:59:27;;;;;;;3.75;2.10;;;15.50;47.30;;;;;;5119868;28;20078;-67
2022/03/25 11:01:55;;;;;;;3.38;1.95;;;15.60;47.40;;;;;;5118386;28;20150;-67
2022/03/25 11:04:22;;;;;;;1.92;1.65;;;15.60;47.40;;;;;;5119723;28;20209;-66
2022/03/25 11:06:49;;;;;;;1.83;1.45;;;15.60;47.40;;;;;;5120623;28;20023;-67
2022/03/25 11:09:16;;;;;;;1.88;1.60;;;15.60;47.50;;;;;;5123722;28;20083;-66
2022/03/25 11:11:44;;;;;;;1.73;1.40;;;15.60;47.40;;;;;;5123632;28;20039;-66
2022/03/25 11:14:13;;;;;;;1.88;1.77;;;15.60;47.50;;;;;;5123665;28;20075;-67
2022/03/25 11:16:44;;;;;;;2.50;1.98;;;15.60;47.40;;;;;;5123837;28;20034;-68
2022/03/25 11:19:12;;;;;;;2.25;1.80;;;15.60;47.50;;;;;;5123547;28;20212;-67
2022/03/25 11:21:44;;;;;;;1.85;1.63;;;15.60;47.50;;;;;;5122086;28;20057;-67
2022/03/25 11:24:33;;;;;;;1.52;1.33;;;15.60;47.50;;;;;;5123409;28;20189;-66
2022/03/25 11:27:09;;;;;;;1.88;1.60;;;15.60;47.40;;;;;;5123399;28;20023;-66
2022/03/25 11:29:36;;;;;;;1.80;1.52;;;15.60;47.50;;;;;;5123366;28;20020;-65
2022/03/25 11:32:02;;;;;;;2.50;1.73;;;15.60;47.50;;;;;;5123228;28;20402;-67
2022/03/25 11:34:27;;;;;;;2.05;1.70;;;15.60;47.40;;;;;;5123203;28;20024;-67
2022/03/25 11:37:20;;;;;;;2.13;1.42;;;15.70;47.50;;;;;;5123133;28;20028;-66
2022/03/25 11:39:46;;;;;;;1.92;1.73;;;15.70;47.50;;;;;;5123079;28;20016;-69
2022/03/25 11:42:49;;;;;;;1.98;1.60;;;15.70;47.50;;;;;;5123140;28;20227;-66
2022/03/25 11:45:33;;;;;;;2.13;1.67;;;15.70;47.40;;;;;;5123041;28;20034;-67
2022/03/25 11:48:04;;;;;;;2.15;1.65;;;15.70;47.50;;;;;;5122796;28;20070;-67
2022/03/25 11:50:36;;;;;;;1.60;1.50;;;15.70;47.40;;;;;;5122972;28;20012;-68
2022/03/25 11:53:11;;;;;;;1.92;1.52;;;15.70;47.50;;;;;;5122756;28;20023;-66
2022/03/25 11:56:01;;;;;;;1.90;1.60;;;15.70;47.50;;;;;;5122746;28;20363;-66
2022/03/25 11:58:32;;;;;;;2.75;1.65;;;15.70;47.60;;;;;;5122779;28;20020;-67
2022/03/25 12:01:18;;;;;;;2.38;1.73;;;15.70;47.60;;;;;;5122780;28;20016;-68
2022/03/25 12:03:49;;;;;;;2.38;1.70;;;15.70;47.50;;;;;;5122725;28;20061;-67
2022/03/25 12:06:18;;;;;;;2.08;1.60;;;15.70;47.50;;;;;;5122558;28;20039;-66
2022/03/25 12:09:13;;;;;;;3.20;2.08;;;15.70;47.50;;;;;;5122577;28;20032;-66
2022/03/25 12:11:50;;;;;;;2.05;1.48;;;15.70;47.60;;;;;;5122465;28;20061;-67
2022/03/25 12:14:17;;;;;;;1.90;1.40;;;15.70;47.60;;;;;;5122494;28;20027;-67
2022/03/25 12:16:48;;;;;;;1.92;1.65;;;15.80;47.60;;;;;;5122413;28;20024;-65
2022/03/25 12:19:28;;;;;;;1.92;1.40;;;15.80;47.60;;;;;;5121982;28;20020;-66
2022/03/25 12:21:58;;;;;;;2.28;1.58;;;15.80;47.50;;;;;;5122283;28;20243;-66
2022/03/25 12:24:24;;;;;;;1.98;1.42;;;15.80;47.50;;;;;;5122283;28;20031;-66
2022/03/25 12:26:55;;;;;;;1.73;1.63;;;15.80;47.60;;;;;;5122310;28;20035;-66
2022/03/25 12:29:32;;;;;;;2.50;1.95;;;15.80;47.50;;;;;;5122176;28;20223;-65
2022/03/25 12:32:02;;;;;;;1.55;1.38;;;15.80;47.50;;;;;;5122075;28;20027;-67
2022/03/25 12:34:52;;;;;;;2.33;1.65;;;15.80;47.60;;;;;;5121934;28;20034;-67
2022/03/25 12:37:30;;;;;;;1.60;1.25;;;15.80;47.50;;;;;;5121970;28;20020;-66
2022/03/25 12:40:07;;;;;;;1.83;1.60;;;15.80;47.60;;;;;;5121891;28;20069;-67
2022/03/25 12:42:33;;;;;;;1.48;1.38;;;15.90;47.60;;;;;;5121883;28;20111;-66
2022/03/25 12:44:59;;;;;;;1.73;1.40;;;15.90;47.60;;;;;;5121858;28;20023;-65
2022/03/25 12:47:35;;;;;;;1.60;1.40;;;15.90;47.60;;;;;;5121504;28;20051;-66
2022/03/25 12:50:03;;;;;;;1.85;1.48;;;15.90;47.60;;;;;;5120453;28;20031;-67
2022/03/25 12:52:29;;;;;;;1.60;1.30;;;15.90;47.60;;;;;;5121661;28;20023;-66
2022/03/25 12:54:55;;;;;;;1.45;1.25;;;15.90;47.50;;;;;;5121631;28;20023;-66
2022/03/25 12:57:31;;;;;;;1.38;1.23;;;15.90;47.50;;;;;;5121654;28;20015;-66